createdAt,value
2023-03-24T00:01:17.921Z,99994.63
2023-03-24T00:03:45.834Z,99992.81
2023-03-24T00:06:18.758Z,99996.97
2023-03-24T00:08:48.030Z,99993.44
2023-03-24T00:11:18.503Z,99998.84
2023-03-24T00:13:47.195Z,100004.22
2023-03-24T00:16:17.002Z,99999.59
2023-03-24T00:18:44.446Z,100003.81
2023-03-24T00:21:13.538Z,100014.34
2023-03-24T00:23:42.746Z,100012.09
2023-03-24T00:26:15.194Z,100008.41
2023-03-24T00:28:47.913Z,100011.53
2023-03-24T00:31:17.668Z,100000.91
2023-03-24T00:33:51.255Z,100004.47
2023-03-24T00:36:23.137Z,100007.78
2023-03-24T00:38:51.545Z,100000.91
2023-03-24T00:41:20.343Z,100000.00
2023-03-24T00:43:49.967Z,100003.81
2023-03-24T00:46:28.254Z,99993.91
2023-03-24T00:49:07.569Z,99993.84
2023-03-24T00:51:40.725Z,99993.97
2023-03-24T00:54:12.552Z,99989.59
2023-03-24T00:56:41.178Z,99982.13
2023-03-24T00:59:10.251Z,99983.78
2023-03-24T01:01:41.030Z,99981.66
2023-03-24T01:04:10.419Z,99984.41
2023-03-24T01:06:39.479Z,99975.53
2023-03-24T01:09:07.742Z,99975.19
2023-03-24T01:11:41.230Z,99980.34
2023-03-24T01:14:10.324Z,99973.44
2023-03-24T01:16:38.178Z,99970.00
2023-03-24T01:19:06.758Z,99971.88
2023-03-24T01:21:35.257Z,99969.72
2023-03-24T01:24:05.155Z,99971.16
2023-03-24T01:26:32.746Z,99963.22
2023-03-24T01:29:00.305Z,99964.41
2023-03-24T01:31:27.591Z,99953.16
2023-03-24T01:33:54.858Z,99952.09
2023-03-24T01:36:22.428Z,99942.53
2023-03-24T01:38:49.694Z,99943.38
2023-03-24T01:41:17.511Z,99939.84
2023-03-24T01:43:45.265Z,99941.03
2023-03-24T01:46:22.595Z,99938.00
2023-03-24T01:49:06.081Z,99944.94
2023-03-24T01:51:39.702Z,99938.69
2023-03-24T01:54:24.879Z,99936.16
2023-03-24T01:57:12.059Z,99928.88
2023-03-24T01:59:47.316Z,99934.97
2023-03-24T02:02:22.265Z,99922.28
2023-03-24T02:05:07.114Z,99925.28
2023-03-24T02:08:27.047Z,99924.81
2023-03-24T02:10:56.561Z,99929.72
2023-03-24T02:13:27.093Z,99926.25
2023-03-24T02:16:40.511Z,99927.38
2023-03-24T02:19:39.312Z,99922.69
2023-03-24T02:23:02.374Z,99933.91
2023-03-24T02:26:19.401Z,99917.53
2023-03-24T02:29:20.596Z,99914.91
2023-03-24T02:32:38.872Z,99914.84
2023-03-24T02:36:28.324Z,99899.13
2023-03-24T02:39:36.789Z,99896.38
2023-03-24T02:42:53.186Z,99893.03
2023-03-24T02:45:59.206Z,99899.31
2023-03-24T02:48:58.316Z,99892.25
2023-03-24T02:51:31.898Z,99886.34
2023-03-24T02:54:27.812Z,99880.91
2023-03-24T02:57:13.438Z,99885.03
2023-03-24T03:00:10.058Z,99891.13
2023-03-24T03:03:17.606Z,99888.50
2023-03-24T03:05:59.302Z,99888.44
2023-03-24T03:08:33.895Z,99876.22
2023-03-24T03:11:05.890Z,99881.66
2023-03-24T03:13:44.329Z,99876.41
2023-03-24T03:16:25.322Z,99872.06
2023-03-24T03:19:03.322Z,99868.69
2023-03-24T03:21:41.413Z,99868.59
2023-03-24T03:24:37.243Z,99868.47
2023-03-24T03:27:14.724Z,99863.09
2023-03-24T03:29:48.536Z,99855.25
2023-03-24T03:32:28.201Z,99861.38
2023-03-24T03:35:59.934Z,99860.56
2023-03-24T03:39:16.092Z,99854.44
2023-03-24T03:41:44.118Z,99855.94
2023-03-24T03:44:11.895Z,99846.19
2023-03-24T03:46:39.865Z,99840.81
2023-03-24T03:49:10.468Z,99833.06
2023-03-24T03:51:38.035Z,99841.00
2023-03-24T03:54:11.649Z,99842.66
2023-03-24T03:56:40.858Z,99849.59
2023-03-24T03:59:34.354Z,99851.41
2023-03-24T04:02:29.280Z,99853.13
2023-03-24T04:05:29.274Z,99851.22
2023-03-24T04:08:33.952Z,99851.94
2023-03-24T04:11:46.618Z,99841.94
2023-03-24T04:15:17.396Z,99851.34
2023-03-24T04:18:43.961Z,99850.44
2023-03-24T04:22:07.195Z,99852.41
2023-03-24T04:25:24.354Z,99855.38
2023-03-24T04:28:26.216Z,99864.66
2023-03-24T04:31:14.322Z,99861.91
2023-03-24T04:34:03.157Z,99855.53
2023-03-24T04:36:50.260Z,99865.13
2023-03-24T04:39:40.768Z,99868.66
2023-03-24T04:42:35.937Z,99875.00
2023-03-24T04:45:07.251Z,99873.19
2023-03-24T04:48:00.882Z,99862.44
2023-03-24T04:50:49.737Z,99869.47
2023-03-24T04:53:19.768Z,99869.63
2023-03-24T04:55:50.046Z,99871.13
2023-03-24T04:58:26.324Z,99868.31
2023-03-24T05:00:55.504Z,99875.25
2023-03-24T05:03:23.271Z,99870.84
2023-03-24T05:05:52.308Z,99882.97
2023-03-24T05:08:20.973Z,99882.03
2023-03-24T05:10:49.412Z,99878.66
2023-03-24T05:13:17.348Z,99872.34
2023-03-24T05:15:53.835Z,99874.31
2023-03-24T05:18:29.435Z,99875.97
2023-03-24T05:20:57.677Z,99874.38
2023-03-24T05:23:26.016Z,99872.50
2023-03-24T05:25:54.075Z,99880.34
2023-03-24T05:28:23.819Z,99878.72
2023-03-24T05:30:53.154Z,99879.81
2023-03-24T05:33:40.737Z,99886.00
2023-03-24T05:36:12.151Z,99888.69
2023-03-24T05:38:40.739Z,99899.31
2023-03-24T05:41:08.754Z,99897.72
2023-03-24T05:43:39.770Z,99898.28
2023-03-24T05:46:15.481Z,99898.41
2023-03-24T05:48:44.069Z,99895.03
2023-03-24T05:51:21.292Z,99891.78
2023-03-24T05:53:57.619Z,99899.22
2023-03-24T05:56:32.689Z,99903.81
2023-03-24T05:59:23.446Z,99905.91
2023-03-24T06:01:56.922Z,99908.00
2023-03-24T06:04:36.805Z,99911.66
2023-03-24T06:07:11.546Z,99914.22
2023-03-24T06:09:42.544Z,99912.66
2023-03-24T06:12:13.618Z,99912.13
2023-03-24T06:14:49.770Z,99924.50
2023-03-24T06:17:17.823Z,99918.28
2023-03-24T06:19:51.027Z,99919.59
2023-03-24T06:22:33.298Z,99919.34
2023-03-24T06:25:05.109Z,99920.38
2023-03-24T06:27:32.370Z,99924.94
2023-03-24T06:30:00.702Z,99914.88
2023-03-24T06:32:28.857Z,99909.38
2023-03-24T06:34:56.138Z,99913.97
2023-03-24T06:37:40.800Z,99908.59
2023-03-24T06:40:15.077Z,99917.31
2023-03-24T06:42:49.820Z,99928.78
2023-03-24T06:45:17.338Z,99933.06
2023-03-24T06:47:46.671Z,99929.72
2023-03-24T06:50:15.306Z,99921.28
2023-03-24T06:52:42.500Z,99916.97
2023-03-24T06:55:12.794Z,99915.44
2023-03-24T06:57:40.189Z,99915.56
2023-03-24T07:00:23.630Z,99913.00
2023-03-24T07:03:02.495Z,99915.75
2023-03-24T07:05:30.570Z,99913.44
2023-03-24T07:10:41.055Z,99927.34
2023-03-24T07:13:08.920Z,99928.34
2023-03-24T07:15:38.580Z,99925.94
2023-03-24T07:18:06.615Z,99933.66
2023-03-24T07:20:38.693Z,99936.28
2023-03-24T07:23:17.237Z,99938.38
2023-03-24T07:26:08.241Z,99931.25
2023-03-24T07:28:47.551Z,99932.59
2023-03-24T07:31:24.626Z,99930.63
2023-03-24T07:34:01.041Z,99936.19
2023-03-24T07:36:29.189Z,99931.22
2023-03-24T07:38:57.760Z,99932.91
2023-03-24T07:41:32.602Z,99933.44
2023-03-24T07:44:03.760Z,99928.16
2023-03-24T07:46:34.782Z,99932.16
2023-03-24T07:49:11.787Z,99935.91
2023-03-24T07:51:48.663Z,99940.63
2023-03-24T07:54:26.448Z,99944.63
2023-03-24T07:56:54.952Z,99944.81
2023-03-24T07:59:22.188Z,99930.97
2023-03-24T08:01:56.689Z,99943.00
2023-03-24T08:04:45.510Z,99953.03
2023-03-24T08:07:37.247Z,99942.72
2023-03-24T08:10:05.059Z,99945.84
2023-03-24T08:12:32.253Z,99943.63
2023-03-24T08:14:59.481Z,99937.22
2023-03-24T08:17:26.724Z,99930.53
2023-03-24T08:19:59.981Z,99936.31
2023-03-24T08:22:28.413Z,99928.00
2023-03-24T08:24:55.669Z,99933.00
2023-03-24T08:27:23.430Z,99932.94
2023-03-24T08:29:50.612Z,99932.63
2023-03-24T08:32:17.916Z,99930.63
2023-03-24T08:34:45.153Z,99933.94
2023-03-24T08:37:12.357Z,99941.91
2023-03-24T08:39:39.529Z,99940.44
2023-03-24T08:42:06.770Z,99945.78
2023-03-24T08:44:33.988Z,99938.31
2023-03-24T08:47:01.699Z,99940.13
2023-03-24T08:49:28.857Z,99926.41
2023-03-24T08:51:56.602Z,99940.84
2023-03-24T08:54:26.064Z,99953.34
2023-03-24T08:56:53.299Z,99951.63
2023-03-24T08:59:20.660Z,99943.69
2023-03-24T09:01:48.246Z,99947.38
2023-03-24T09:04:15.599Z,99940.63
2023-03-24T09:06:43.469Z,99942.09
2023-03-24T09:09:10.676Z,99938.72
2023-03-24T09:11:38.667Z,99937.25
2023-03-24T09:14:06.081Z,99941.13
2023-03-24T09:16:34.519Z,99936.91
2023-03-24T09:19:01.773Z,99949.09
2023-03-24T09:21:28.994Z,99954.00
2023-03-24T09:23:56.174Z,99947.56
2023-03-24T09:26:23.771Z,99949.97
2023-03-24T09:28:50.975Z,99936.16
2023-03-24T09:31:18.308Z,99928.78
2023-03-24T09:33:45.766Z,99932.47
2023-03-24T09:36:13.011Z,99932.69
2023-03-24T09:38:40.280Z,99933.88
2023-03-24T09:41:31.863Z,99941.53
2023-03-24T09:44:26.753Z,99930.94
2023-03-24T09:47:01.576Z,99937.00
2023-03-24T09:49:34.104Z,99930.03
2023-03-24T09:52:09.588Z,99925.13
2023-03-24T09:54:54.237Z,99921.56
2023-03-24T09:57:43.680Z,99933.13
2023-03-24T10:00:28.960Z,99924.38
2023-03-24T10:03:22.993Z,99924.44
2023-03-24T10:06:09.770Z,99933.63
2023-03-24T10:08:43.722Z,99934.56
2023-03-24T10:12:20.468Z,99937.84
2023-03-24T10:15:45.097Z,99939.13
2023-03-24T10:19:36.993Z,99934.72
2023-03-24T10:22:45.864Z,99927.88
2023-03-24T10:25:25.798Z,99924.53
2023-03-24T10:28:04.008Z,99926.66
2023-03-24T10:30:39.724Z,99925.13
2023-03-24T10:33:10.704Z,99917.97
2023-03-24T10:36:02.126Z,99924.97
2023-03-24T10:38:29.606Z,99932.09
2023-03-24T10:40:57.852Z,99928.50
2023-03-24T10:43:27.891Z,99915.72
2023-03-24T10:45:58.487Z,99915.88
2023-03-24T10:48:47.287Z,99910.69
2023-03-24T10:51:24.281Z,99912.00
2023-03-24T10:53:52.162Z,99915.38
2023-03-24T10:56:43.212Z,99914.97
2023-03-24T10:59:37.788Z,99906.66
2023-03-24T11:02:24.547Z,99906.19
2023-03-24T11:05:16.785Z,99899.25
2023-03-24T11:07:49.085Z,99894.28
2023-03-24T11:10:24.714Z,99894.09
2023-03-24T11:12:55.033Z,99898.22
2023-03-24T11:15:32.199Z,99900.91
2023-03-24T11:18:11.660Z,99899.88
2023-03-24T11:20:46.421Z,99897.06
2023-03-24T11:23:27.764Z,99896.50
2023-03-24T11:26:18.930Z,99902.09
2023-03-24T11:28:57.887Z,99893.63
2023-03-24T11:31:32.678Z,99884.53
2023-03-24T11:34:10.862Z,99870.47
2023-03-24T11:37:05.113Z,99871.50
2023-03-24T11:39:37.238Z,99876.84
2023-03-24T11:42:10.550Z,99866.44
2023-03-24T11:44:53.464Z,99864.38
2023-03-24T11:47:38.879Z,99852.66
2023-03-24T11:50:12.269Z,99846.75
2023-03-24T11:53:20.732Z,99848.91
2023-03-24T11:56:09.214Z,99846.38
2023-03-24T11:58:54.691Z,99858.47
2023-03-24T12:01:21.705Z,99852.22
2023-03-24T12:04:50.033Z,99848.53
2023-03-24T12:08:14.939Z,99832.16
2023-03-24T12:11:19.515Z,99837.16
2023-03-24T12:13:50.133Z,99830.13
2023-03-24T12:17:00.040Z,99820.50
2023-03-24T12:20:05.316Z,99823.63
2023-03-24T12:22:46.780Z,99812.56
2023-03-24T12:25:59.437Z,99798.84
2023-03-24T12:28:43.337Z,99788.22
2023-03-24T12:32:03.710Z,99790.97
2023-03-24T12:35:25.010Z,99781.88
2023-03-24T12:38:26.084Z,99780.38
2023-03-24T12:41:21.781Z,99770.72
2023-03-24T12:44:36.847Z,99764.63
2023-03-24T12:48:03.736Z,99765.31
2023-03-24T12:51:06.179Z,99764.41
2023-03-24T12:53:57.222Z,99767.63
2023-03-24T12:56:44.566Z,99758.97
2023-03-24T12:59:49.830Z,99758.84
2023-03-24T13:02:32.232Z,99748.41
2023-03-24T13:05:27.610Z,99745.88
2023-03-24T13:08:02.505Z,99739.66
2023-03-24T13:10:40.309Z,99742.09
2023-03-24T13:13:28.916Z,99733.59
2023-03-24T13:16:24.485Z,99715.13
2023-03-24T13:18:56.345Z,99726.66
2023-03-24T13:21:26.473Z,99727.56
2023-03-24T13:24:02.614Z,99721.16
2023-03-24T13:26:42.656Z,99723.03
2023-03-24T13:30:17.688Z,99715.94
2023-03-24T13:32:55.951Z,99703.38
2023-03-24T13:36:04.308Z,99693.41
2023-03-24T13:38:53.390Z,99691.53
2023-03-24T13:41:27.127Z,99688.50
2023-03-24T13:44:14.940Z,99672.16
2023-03-24T13:46:42.914Z,99659.03
2023-03-24T13:49:14.908Z,99661.13
2023-03-24T13:51:46.499Z,99660.25
2023-03-24T13:54:27.303Z,99648.53
2023-03-24T13:57:11.711Z,99649.16
2023-03-24T14:00:14.255Z,99647.34
2023-03-24T14:02:55.341Z,99640.78
2023-03-24T14:05:22.514Z,99645.28
2023-03-24T14:08:15.944Z,99655.94
2023-03-24T14:10:49.972Z,99641.16
2023-03-24T14:13:17.036Z,99657.53
2023-03-24T14:15:56.280Z,99654.81
2023-03-24T14:18:23.440Z,99649.78
2023-03-24T14:21:10.352Z,99652.28
2023-03-24T14:23:53.150Z,99665.47
2023-03-24T14:26:20.361Z,99655.38
2023-03-24T14:28:53.658Z,99645.53
2023-03-24T14:31:33.512Z,99642.06
2023-03-24T14:34:21.056Z,99637.72
2023-03-24T14:37:03.432Z,99646.38
2023-03-24T14:39:43.143Z,99647.53
2023-03-24T14:42:48.549Z,99638.38
2023-03-24T14:46:08.973Z,99635.06
2023-03-24T14:49:28.674Z,99636.25
2023-03-24T14:52:28.892Z,99638.31
2023-03-24T14:55:03.730Z,99637.72
2023-03-24T14:57:46.187Z,99630.75
2023-03-24T15:01:07.002Z,99623.53
2023-03-24T15:04:01.680Z,99649.75
2023-03-24T15:06:29.178Z,99639.72
2023-03-24T15:09:01.312Z,99639.50
2023-03-24T15:11:39.596Z,99642.63
2023-03-24T15:14:28.143Z,99652.94
2023-03-24T15:17:06.708Z,99640.38
2023-03-24T15:19:34.018Z,99633.38
2023-03-24T15:22:06.307Z,99636.47
2023-03-24T15:24:38.007Z,99639.19
2023-03-24T15:27:08.229Z,99638.56
2023-03-24T15:29:39.206Z,99647.78
2023-03-24T15:32:17.091Z,99635.34
2023-03-24T15:34:57.112Z,99638.28
2023-03-24T15:37:43.088Z,99636.72
2023-03-24T15:40:32.743Z,99642.69
2023-03-24T15:43:06.814Z,99640.59
2023-03-24T15:46:11.697Z,99642.41
2023-03-24T15:48:40.662Z,99632.91
2023-03-24T15:51:11.601Z,99635.41
2023-03-24T15:53:43.986Z,99636.09
2023-03-24T15:56:36.283Z,99639.50
2023-03-24T15:59:13.855Z,99635.66
2023-03-24T16:01:44.820Z,99641.69
2023-03-24T16:04:17.457Z,99650.38
2023-03-24T16:06:53.591Z,99651.44
2023-03-24T16:09:27.253Z,99655.47
2023-03-24T16:11:54.663Z,99654.44
2023-03-24T16:14:29.714Z,99656.94
2023-03-24T16:17:02.262Z,99662.06
2023-03-24T16:19:30.031Z,99664.69
2023-03-24T16:21:57.832Z,99669.66
2023-03-24T16:24:25.469Z,99657.25
2023-03-24T16:26:52.686Z,99663.09
2023-03-24T16:29:23.630Z,99669.28
2023-03-24T16:31:56.017Z,99652.50
2023-03-24T16:34:24.625Z,99646.28
2023-03-24T16:36:54.576Z,99647.94
2023-03-24T16:39:29.002Z,99640.84
2023-03-24T16:41:56.940Z,99640.72
2023-03-24T16:44:24.797Z,99643.47
2023-03-24T16:46:54.394Z,99640.28
2023-03-24T16:49:23.651Z,99638.94
2023-03-24T16:51:52.753Z,99633.22
2023-03-24T16:54:20.909Z,99619.00
2023-03-24T16:56:48.502Z,99608.97
2023-03-24T16:59:15.953Z,99598.97
2023-03-24T17:01:46.204Z,99586.53
2023-03-24T17:04:16.930Z,99570.19
2023-03-24T17:06:50.852Z,99557.13
2023-03-24T17:09:18.516Z,99566.19
2023-03-24T17:11:54.313Z,99553.72
2023-03-24T17:14:22.118Z,99550.97
2023-03-24T17:16:52.542Z,99563.22
2023-03-24T17:19:23.091Z,99590.41
2023-03-24T17:22:03.779Z,99603.59
2023-03-24T17:24:36.597Z,99605.63
2023-03-24T17:27:11.028Z,99617.06
2023-03-24T17:29:38.113Z,99618.19
2023-03-24T17:32:06.009Z,99614.66
2023-03-24T17:34:33.796Z,99619.56
2023-03-24T17:37:01.255Z,99626.72
2023-03-24T17:39:28.577Z,99635.38
2023-03-24T17:41:58.588Z,99622.00
2023-03-24T17:44:25.993Z,99629.69
2023-03-24T17:46:53.859Z,99635.97
2023-03-24T17:49:21.595Z,99634.84
2023-03-24T17:51:48.920Z,99622.81
2023-03-24T17:54:16.622Z,99623.97
2023-03-24T17:56:43.844Z,99616.56
2023-03-24T17:59:11.008Z,99611.75
2023-03-24T18:01:39.234Z,99626.59
2023-03-24T18:04:07.382Z,99627.28
2023-03-24T18:06:34.859Z,99632.75
2023-03-24T18:09:02.122Z,99625.09
2023-03-24T18:11:29.472Z,99625.19
2023-03-24T18:13:56.702Z,99630.44
2023-03-24T18:16:26.750Z,99638.16
2023-03-24T18:18:54.005Z,99636.28
2023-03-24T18:21:22.433Z,99624.28
2023-03-24T18:23:50.268Z,99624.56
2023-03-24T18:26:18.273Z,99631.38
2023-03-24T18:28:46.081Z,99629.13
2023-03-24T18:31:19.949Z,99633.19
2023-03-24T18:33:49.669Z,99639.50
2023-03-24T18:36:21.238Z,99647.88
2023-03-24T18:38:49.297Z,99654.81
2023-03-24T18:41:18.407Z,99650.53
2023-03-24T18:43:48.146Z,99651.69
2023-03-24T18:46:16.718Z,99643.50
2023-03-24T18:48:44.411Z,99637.97
2023-03-24T18:51:12.194Z,99627.84
2023-03-24T18:53:40.317Z,99630.78
2023-03-24T18:56:08.662Z,99637.00
2023-03-24T18:58:37.969Z,99647.19
2023-03-24T19:01:15.977Z,99646.75
2023-03-24T19:03:44.650Z,99648.56
2023-03-24T19:06:14.259Z,99640.06
2023-03-24T19:08:51.607Z,99643.69
2023-03-24T19:11:19.267Z,99660.03
2023-03-24T19:13:49.742Z,99659.69
2023-03-24T19:16:19.551Z,99661.25
2023-03-24T19:18:48.301Z,99669.25
2023-03-24T19:21:16.842Z,99668.81
2023-03-24T19:23:46.590Z,99672.84
2023-03-24T19:26:16.535Z,99667.81
2023-03-24T19:28:44.196Z,99662.47
2023-03-24T19:31:17.372Z,99667.78
2023-03-24T19:33:46.471Z,99666.88
2023-03-24T19:36:15.402Z,99666.69
2023-03-24T19:38:42.729Z,99673.47
2023-03-24T19:41:15.118Z,99673.00
2023-03-24T19:43:42.285Z,99676.63
2023-03-24T19:46:09.553Z,99669.38
2023-03-24T19:48:37.075Z,99663.56
2023-03-24T19:51:04.805Z,99672.75
2023-03-24T19:53:32.045Z,99675.13
2023-03-24T19:55:59.840Z,99671.19
2023-03-24T19:58:27.421Z,99667.56
2023-03-24T20:00:54.726Z,99666.06
2023-03-24T20:03:22.923Z,99661.16
2023-03-24T20:05:50.562Z,99660.88
2023-03-24T20:08:19.134Z,99657.22
2023-03-24T20:10:47.250Z,99662.03
2023-03-24T20:13:14.490Z,99670.66
2023-03-24T20:15:41.773Z,99664.44
2023-03-24T20:18:10.481Z,99653.72
2023-03-24T20:20:37.812Z,99644.03
2023-03-24T20:23:05.343Z,99646.41
2023-03-24T20:25:32.587Z,99656.75
2023-03-24T20:27:59.938Z,99668.69
2023-03-24T20:30:28.657Z,99669.91
2023-03-24T20:32:56.945Z,99669.88
2023-03-24T20:35:25.597Z,99671.69
2023-03-24T20:37:52.912Z,99666.00
2023-03-24T20:40:21.682Z,99661.13
2023-03-24T20:42:49.318Z,99669.97
2023-03-24T20:45:16.948Z,99664.22
2023-03-24T20:47:44.368Z,99674.53
2023-03-24T20:50:11.777Z,99677.31
2023-03-24T20:52:39.696Z,99673.22
2023-03-24T20:55:08.771Z,99671.34
2023-03-24T20:57:36.154Z,99673.00
2023-03-24T21:00:11.543Z,99666.91
2023-03-24T21:02:39.626Z,99665.94
2023-03-24T21:05:07.888Z,99670.25
2023-03-24T21:07:38.003Z,99665.44
2023-03-24T21:10:07.129Z,99675.94
2023-03-24T21:12:35.034Z,99668.91
2023-03-24T21:15:02.352Z,99669.88
2023-03-24T21:17:32.296Z,99673.03
2023-03-24T21:20:08.798Z,99676.50
2023-03-24T21:22:53.126Z,99675.69
2023-03-24T21:25:31.136Z,99667.09
2023-03-24T21:27:59.397Z,99664.59
2023-03-24T21:30:28.506Z,99663.75
2023-03-24T21:32:57.508Z,99660.44
2023-03-24T21:35:25.004Z,99673.53
2023-03-24T21:37:53.746Z,99674.94
2023-03-24T21:40:25.365Z,99675.97
2023-03-24T21:42:53.956Z,99672.41
2023-03-24T21:45:23.867Z,99671.88
2023-03-24T21:47:55.100Z,99682.59
2023-03-24T21:50:23.596Z,99661.44
2023-03-24T21:52:53.686Z,99669.88
2023-03-24T21:55:23.235Z,99664.66
2023-03-24T21:57:51.802Z,99655.66
2023-03-24T22:00:29.777Z,99659.88
2023-03-24T22:02:58.171Z,99661.25
2023-03-24T22:05:29.052Z,99661.94
2023-03-24T22:07:56.252Z,99660.53
2023-03-24T22:10:24.563Z,99669.28
2023-03-24T22:12:53.169Z,99671.75
2023-03-24T22:15:21.198Z,99667.41
2023-03-24T22:17:49.046Z,99669.19
2023-03-24T22:20:16.888Z,99654.91
2023-03-24T22:22:44.481Z,99657.84
2023-03-24T22:25:16.298Z,99653.22
2023-03-24T22:27:44.405Z,99654.72
2023-03-24T22:30:13.772Z,99659.84
2023-03-24T22:32:41.635Z,99662.50
2023-03-24T22:35:09.620Z,99659.84
2023-03-24T22:37:36.960Z,99676.50
2023-03-24T22:40:05.735Z,99665.19
2023-03-24T22:42:32.990Z,99660.13
2023-03-24T22:45:00.482Z,99659.31
2023-03-24T22:47:28.833Z,99674.34
2023-03-24T22:49:56.010Z,99667.97
2023-03-24T22:52:23.451Z,99666.25
2023-03-24T22:54:50.588Z,99664.22
2023-03-24T22:57:18.771Z,99660.03
2023-03-24T22:59:46.052Z,99658.06
2023-03-24T23:02:13.407Z,99654.78
2023-03-24T23:04:42.194Z,99665.78
2023-03-24T23:07:10.163Z,99677.50
2023-03-24T23:09:37.592Z,99663.72
2023-03-24T23:12:05.199Z,99663.63
2023-03-24T23:14:32.372Z,99659.38
2023-03-24T23:16:59.583Z,99668.97
2023-03-24T23:19:28.106Z,99660.84
2023-03-24T23:21:55.279Z,99668.22
2023-03-24T23:24:22.433Z,99667.19
2023-03-24T23:26:49.682Z,99676.09
2023-03-24T23:29:17.170Z,99676.00
2023-03-24T23:31:44.441Z,99671.66
2023-03-24T23:34:12.038Z,99672.00
2023-03-24T23:36:49.756Z,99670.66
2023-03-24T23:39:17.319Z,99666.16
2023-03-24T23:41:46.213Z,99678.78
2023-03-24T23:44:14.774Z,99669.94
2023-03-24T23:46:41.975Z,99670.44
2023-03-24T23:49:09.551Z,99664.88
2023-03-24T23:51:36.753Z,99668.25
2023-03-24T23:54:04.357Z,99665.41
2023-03-24T23:56:36.756Z,99655.78
2023-03-24T23:59:07.545Z,99649.41
